createdAt,value
2023-01-09T00:00:54.035Z,8.90
2023-01-09T00:03:21.555Z,11.13
2023-01-09T00:05:48.875Z,10.48
2023-01-09T00:08:16.286Z,11.18
2023-01-09T00:10:43.630Z,12.90
2023-01-09T00:13:14.344Z,11.38
2023-01-09T00:15:41.872Z,10.20
2023-01-09T00:18:09.556Z,10.90
2023-01-09T00:20:37.072Z,9.25
2023-01-09T00:23:04.823Z,11.60
2023-01-09T00:25:32.265Z,10.80
2023-01-09T00:27:59.689Z,12.43
2023-01-09T00:30:27.459Z,12.93
2023-01-09T00:32:55.719Z,10.35
2023-01-09T00:35:24.264Z,8.30
2023-01-09T00:37:51.608Z,8.90
2023-01-09T00:40:19.700Z,9.95
2023-01-09T00:42:48.777Z,9.30
2023-01-09T00:45:17.905Z,11.57
2023-01-09T00:47:51.137Z,10.52
2023-01-09T00:50:24.016Z,10.25
2023-01-09T00:52:52.297Z,9.15
2023-01-09T00:55:19.717Z,8.18
2023-01-09T00:57:47.167Z,8.35
2023-01-09T01:00:14.944Z,8.50
2023-01-09T01:02:42.444Z,7.65
2023-01-09T01:05:36.178Z,10.05
2023-01-09T01:08:03.631Z,9.68
2023-01-09T01:10:30.975Z,6.88
2023-01-09T01:12:58.378Z,8.95
2023-01-09T01:15:29.305Z,8.70
2023-01-09T01:17:56.648Z,9.60
2023-01-09T01:20:23.950Z,10.00
2023-01-09T01:22:51.408Z,8.88
2023-01-09T01:25:18.855Z,9.00
2023-01-09T01:27:46.575Z,8.75
2023-01-09T01:30:15.063Z,9.88
2023-01-09T01:32:42.442Z,10.18
2023-01-09T01:35:09.978Z,11.32
2023-01-09T01:37:38.012Z,9.50
2023-01-09T01:40:06.397Z,9.10
2023-01-09T01:42:33.836Z,8.55
2023-01-09T01:45:01.225Z,8.02
2023-01-09T01:47:34.360Z,8.10
2023-01-09T01:50:04.403Z,10.35
2023-01-09T01:52:33.142Z,10.52
2023-01-09T01:55:00.728Z,7.97
2023-01-09T01:57:28.086Z,9.45
2023-01-09T01:59:58.160Z,9.00
2023-01-09T02:02:29.315Z,9.73
2023-01-09T02:04:57.483Z,11.67
2023-01-09T02:07:24.839Z,10.32
2023-01-09T02:09:52.370Z,8.40
2023-01-09T02:12:25.421Z,8.60
2023-01-09T02:15:05.985Z,10.68
2023-01-09T02:18:00.748Z,8.50
2023-01-09T02:20:31.023Z,8.55
2023-01-09T02:23:17.423Z,8.40
2023-01-09T02:26:03.479Z,10.15
2023-01-09T02:28:30.899Z,8.73
2023-01-09T02:31:22.629Z,8.80
2023-01-09T02:33:59.323Z,7.65
2023-01-09T02:36:27.099Z,9.95
2023-01-09T02:39:06.178Z,9.45
2023-01-09T02:41:44.841Z,8.27
2023-01-09T02:44:22.447Z,8.32
2023-01-09T02:47:01.015Z,12.15
2023-01-09T02:49:28.662Z,13.73
2023-01-09T02:52:02.659Z,15.30
2023-01-09T02:54:38.421Z,18.70
2023-01-09T02:57:19.198Z,16.42
2023-01-09T02:59:56.638Z,18.27
2023-01-09T03:02:44.910Z,16.08
2023-01-09T03:05:12.384Z,17.67
2023-01-09T03:07:44.532Z,18.80
2023-01-09T03:10:18.987Z,21.98
2023-01-09T03:12:48.256Z,21.33
2023-01-09T03:15:16.055Z,19.88
2023-01-09T03:17:46.404Z,19.48
2023-01-09T03:20:15.464Z,16.70
2023-01-09T03:23:02.870Z,19.73
2023-01-09T03:25:30.762Z,15.10
2023-01-09T03:28:02.188Z,15.63
2023-01-09T03:30:30.037Z,17.48
2023-01-09T03:32:58.037Z,16.83
2023-01-09T03:35:25.535Z,16.63
2023-01-09T03:37:52.894Z,19.00
2023-01-09T03:40:20.684Z,17.10
2023-01-09T03:42:48.305Z,18.70
2023-01-09T03:45:15.712Z,22.08
2023-01-09T03:47:43.456Z,23.52
2023-01-09T03:50:11.287Z,15.18
2023-01-09T03:52:38.722Z,16.02
2023-01-09T03:55:06.265Z,18.45
2023-01-09T03:57:33.571Z,18.15
2023-01-09T04:00:00.935Z,18.58
2023-01-09T04:02:28.274Z,16.30
2023-01-09T04:04:56.285Z,16.75
2023-01-09T04:07:23.916Z,19.05
2023-01-09T04:09:51.309Z,19.02
2023-01-09T04:12:18.683Z,17.70
2023-01-09T04:14:46.038Z,18.88
2023-01-09T04:17:13.486Z,18.73
2023-01-09T04:19:40.790Z,19.92
2023-01-09T04:22:08.207Z,19.77
2023-01-09T04:24:35.796Z,20.65
2023-01-09T04:27:03.101Z,19.85
2023-01-09T04:29:30.473Z,18.85
2023-01-09T04:31:57.871Z,16.52
2023-01-09T04:34:25.848Z,18.27
2023-01-09T04:36:53.929Z,19.88
2023-01-09T04:39:21.631Z,18.55
2023-01-09T04:41:48.955Z,18.85
2023-01-09T04:44:28.640Z,19.77
2023-01-09T04:46:57.106Z,22.08
2023-01-09T04:49:24.491Z,15.48
2023-01-09T04:51:51.993Z,15.75
2023-01-09T04:54:19.695Z,14.63
2023-01-09T04:56:47.324Z,17.42
2023-01-09T04:59:14.707Z,19.15
2023-01-09T05:01:42.302Z,16.30
2023-01-09T05:04:09.762Z,17.88
2023-01-09T05:06:37.306Z,17.85
2023-01-09T05:09:04.761Z,18.67
2023-01-09T05:11:32.112Z,21.27
2023-01-09T05:13:59.505Z,19.33
2023-01-09T05:16:26.893Z,18.13
2023-01-09T05:18:57.098Z,14.25
2023-01-09T05:21:24.932Z,18.35
2023-01-09T05:23:52.532Z,16.35
2023-01-09T05:26:24.007Z,16.77
2023-01-09T05:28:52.180Z,18.92
2023-01-09T05:31:20.156Z,17.05
2023-01-09T05:33:47.891Z,20.30
2023-01-09T05:36:15.716Z,19.77
2023-01-09T05:38:43.191Z,20.15
2023-01-09T05:41:10.770Z,18.63
2023-01-09T05:43:38.133Z,20.38
2023-01-09T05:46:05.546Z,20.50
2023-01-09T05:48:32.965Z,23.65
2023-01-09T05:51:00.297Z,23.85
2023-01-09T05:53:27.631Z,18.25
2023-01-09T05:55:55.010Z,19.45
2023-01-09T05:58:22.334Z,23.08
2023-01-09T06:00:49.721Z,21.65
2023-01-09T06:03:17.503Z,20.92
2023-01-09T06:05:44.916Z,20.83
2023-01-09T06:08:12.316Z,20.80
2023-01-09T06:10:39.739Z,20.90
2023-01-09T06:13:07.143Z,22.23
2023-01-09T06:15:34.461Z,22.10
2023-01-09T06:18:01.977Z,24.00
2023-01-09T06:20:29.359Z,23.45
2023-01-09T06:22:56.662Z,19.60
2023-01-09T06:25:24.003Z,19.42
2023-01-09T06:27:54.188Z,24.88
2023-01-09T06:30:21.584Z,21.75
2023-01-09T06:32:50.360Z,22.65
2023-01-09T06:35:22.438Z,21.30
2023-01-09T06:40:17.727Z,21.80
2023-01-09T06:42:45.665Z,32.80
2023-01-09T06:45:13.677Z,20.67
2023-01-09T06:47:41.627Z,23.77
2023-01-09T06:50:09.464Z,22.67
2023-01-09T06:52:37.519Z,20.98
2023-01-09T06:55:05.159Z,21.10
2023-01-09T06:57:32.551Z,24.02
2023-01-09T06:59:59.952Z,22.05
2023-01-09T07:02:27.316Z,18.58
2023-01-09T07:04:54.637Z,22.55
2023-01-09T07:07:22.630Z,21.70
2023-01-09T07:09:50.305Z,20.30
2023-01-09T07:12:18.000Z,20.52
2023-01-09T07:14:45.323Z,17.15
2023-01-09T07:17:13.684Z,19.05
2023-01-09T07:19:41.261Z,19.17
2023-01-09T07:22:08.910Z,19.70
2023-01-09T07:24:36.231Z,22.30
2023-01-09T07:27:03.690Z,21.55
2023-01-09T07:29:31.207Z,20.35
2023-01-09T07:31:58.537Z,16.38
2023-01-09T07:34:25.899Z,21.63
2023-01-09T07:36:53.221Z,21.38
2023-01-09T07:39:20.620Z,18.88
2023-01-09T07:41:48.022Z,17.77
2023-01-09T07:44:16.424Z,20.23
2023-01-09T07:46:43.799Z,19.45
2023-01-09T07:49:11.264Z,17.77
2023-01-09T07:51:42.833Z,20.55
2023-01-09T07:54:10.585Z,18.40
2023-01-09T07:56:37.924Z,15.82
2023-01-09T07:59:05.271Z,18.80
2023-01-09T08:01:32.972Z,19.42
2023-01-09T08:04:00.398Z,16.25
2023-01-09T08:06:27.866Z,19.73
2023-01-09T08:08:55.260Z,19.38
2023-01-09T08:11:22.648Z,18.95
2023-01-09T08:13:50.105Z,17.83
2023-01-09T08:16:17.459Z,17.63
2023-01-09T08:18:44.866Z,24.42
2023-01-09T08:21:12.424Z,17.02
2023-01-09T08:23:39.789Z,19.35
2023-01-09T08:26:07.155Z,21.27
2023-01-09T08:28:34.598Z,19.75
2023-01-09T08:31:02.006Z,23.70
2023-01-09T08:33:29.704Z,25.65
2023-01-09T08:35:57.145Z,22.58
2023-01-09T08:38:24.553Z,23.88
2023-01-09T08:40:51.916Z,22.48
2023-01-09T08:43:37.902Z,20.50
2023-01-09T08:46:24.987Z,22.30
2023-01-09T08:48:52.362Z,22.65
2023-01-09T08:51:19.651Z,18.70
2023-01-09T08:53:46.991Z,21.33
2023-01-09T08:56:14.391Z,16.60
2023-01-09T08:58:41.808Z,19.30
2023-01-09T09:01:09.288Z,18.55
2023-01-09T09:03:36.644Z,17.83
2023-01-09T09:06:04.068Z,19.70
2023-01-09T09:08:31.551Z,18.05
2023-01-09T09:11:01.158Z,17.60
2023-01-09T09:13:29.444Z,19.60
2023-01-09T09:15:57.171Z,19.35
2023-01-09T09:18:24.544Z,21.17
2023-01-09T09:20:51.802Z,18.98
2023-01-09T09:23:19.149Z,21.50
2023-01-09T09:25:46.487Z,20.73
2023-01-09T09:28:13.881Z,19.63
2023-01-09T09:30:42.863Z,22.45
2023-01-09T09:33:10.550Z,23.83
2023-01-09T09:35:38.254Z,19.95
2023-01-09T09:38:06.130Z,20.90
2023-01-09T09:40:33.596Z,21.27
2023-01-09T09:43:34.920Z,25.63
2023-01-09T09:46:13.202Z,20.80
2023-01-09T09:48:48.946Z,22.15
2023-01-09T09:51:16.264Z,26.85
2023-01-09T09:54:01.614Z,27.85
2023-01-09T09:56:31.899Z,21.27
2023-01-09T09:59:15.830Z,20.98
2023-01-09T10:01:45.620Z,22.67
2023-01-09T10:04:15.426Z,27.92
2023-01-09T10:06:47.305Z,24.65
2023-01-09T10:09:17.664Z,19.70
2023-01-09T10:12:04.079Z,23.30
2023-01-09T10:14:32.373Z,18.67
2023-01-09T10:17:00.040Z,24.38
2023-01-09T10:19:35.699Z,25.73
2023-01-09T10:22:24.986Z,21.38
2023-01-09T10:25:03.963Z,27.08
2023-01-09T10:27:37.474Z,19.50
2023-01-09T10:30:17.559Z,20.02
2023-01-09T10:32:47.895Z,20.38
2023-01-09T10:35:47.094Z,18.65
2023-01-09T10:38:18.893Z,15.38
2023-01-09T10:40:51.582Z,20.95
2023-01-09T10:43:30.992Z,20.42
2023-01-09T10:46:01.151Z,20.13
2023-01-09T10:48:37.238Z,17.67
2023-01-09T10:51:12.434Z,4.97
2023-01-09T10:53:43.286Z,7.40
2023-01-09T10:56:30.637Z,5.00
2023-01-09T10:58:58.083Z,1.42
2023-01-09T11:01:33.047Z,0.90
2023-01-09T11:04:02.285Z,2.33
2023-01-09T11:06:46.170Z,1.50
2023-01-09T11:09:15.156Z,1.30
2023-01-09T11:11:42.573Z,4.75
2023-01-09T11:14:15.998Z,2.08
2023-01-09T11:16:53.768Z,1.80
2023-01-09T11:19:22.051Z,1.30
2023-01-09T11:21:49.696Z,2.50
2023-01-09T11:24:23.928Z,1.33
2023-01-09T11:26:52.399Z,3.17
2023-01-09T11:29:21.185Z,1.35
2023-01-09T11:31:55.718Z,1.90
2023-01-09T11:34:24.826Z,1.58
2023-01-09T11:36:53.242Z,1.60
2023-01-09T11:39:25.138Z,1.58
2023-01-09T11:41:56.986Z,1.95
2023-01-09T11:44:24.910Z,0.80
2023-01-09T11:46:52.304Z,40.63
2023-01-09T11:49:25.842Z,0.98
2023-01-09T11:52:06.135Z,0.63
2023-01-09T11:54:35.135Z,1.02
2023-01-09T11:57:02.446Z,0.80
2023-01-09T11:59:31.176Z,1.60
2023-01-09T12:02:17.554Z,1.38
2023-01-09T12:05:04.040Z,0.85
2023-01-09T12:07:34.317Z,0.95
2023-01-09T12:10:24.406Z,4.05
2023-01-09T12:12:51.861Z,0.90
2023-01-09T12:15:38.057Z,1.20
2023-01-09T12:18:08.224Z,1.40
2023-01-09T12:20:49.104Z,4.63
2023-01-09T12:23:30.132Z,0.70
2023-01-09T12:25:57.679Z,0.75
2023-01-09T12:28:43.754Z,0.60
2023-01-09T12:31:26.065Z,0.63
2023-01-09T12:34:04.044Z,1.50
2023-01-09T12:36:37.737Z,0.60
2023-01-09T12:39:14.006Z,0.73
2023-01-09T12:41:55.089Z,0.60
2023-01-09T12:44:54.708Z,1.10
2023-01-09T12:47:22.689Z,2.00
2023-01-09T12:49:50.023Z,0.98
2023-01-09T12:52:20.519Z,0.50
2023-01-09T12:54:50.147Z,1.08
2023-01-09T12:57:24.540Z,0.80
2023-01-09T12:59:54.908Z,2.47
2023-01-09T13:02:41.217Z,0.80
2023-01-09T13:05:17.197Z,1.05
2023-01-09T13:07:50.448Z,2.22
2023-01-09T13:10:30.757Z,1.30
2023-01-09T13:12:59.106Z,4.10
2023-01-09T13:15:29.896Z,1.50
2023-01-09T13:18:01.020Z,8.35
2023-01-09T13:20:48.434Z,2.97
2023-01-09T13:23:23.172Z,2.72
2023-01-09T13:25:53.202Z,2.03
2023-01-09T13:28:53.934Z,2.10
2023-01-09T13:31:24.369Z,1.23
2023-01-09T13:33:58.871Z,2.90
2023-01-09T13:36:28.101Z,5.13
2023-01-09T13:38:58.986Z,1.67
2023-01-09T13:41:45.912Z,5.88
2023-01-09T13:44:19.464Z,7.50
2023-01-09T13:46:48.033Z,8.90
2023-01-09T13:49:51.369Z,8.50
2023-01-09T13:52:30.953Z,6.63
2023-01-09T13:54:58.792Z,10.02
2023-01-09T13:57:26.923Z,10.90
2023-01-09T13:59:57.317Z,6.75
2023-01-09T14:02:35.098Z,7.28
2023-01-09T14:05:03.066Z,3.75
2023-01-09T14:07:34.392Z,3.80
2023-01-09T14:10:04.144Z,2.95
2023-01-09T14:12:33.395Z,1.80
2023-01-09T14:15:04.056Z,3.45
2023-01-09T14:17:38.544Z,5.80
2023-01-09T14:20:07.813Z,4.22
2023-01-09T14:22:45.522Z,3.95
2023-01-09T14:25:25.243Z,5.57
2023-01-09T14:27:55.565Z,5.05
2023-01-09T14:31:01.783Z,4.28
2023-01-09T14:33:30.774Z,3.60
2023-01-09T14:36:13.599Z,9.23
2023-01-09T14:38:43.190Z,7.03
2023-01-09T14:41:42.405Z,10.15
2023-01-09T14:44:19.211Z,8.82
2023-01-09T14:46:46.553Z,4.43
2023-01-09T14:49:23.307Z,4.53
2023-01-09T14:51:51.427Z,8.63
2023-01-09T14:54:25.420Z,3.38
2023-01-09T14:56:54.064Z,6.88
2023-01-09T14:59:21.372Z,3.70
2023-01-09T15:01:51.391Z,2.83
2023-01-09T15:04:28.094Z,1.77
2023-01-09T15:06:55.439Z,3.33
2023-01-09T15:09:24.936Z,6.90
2023-01-09T15:11:53.825Z,4.15
2023-01-09T15:14:40.082Z,5.50
2023-01-09T15:17:08.372Z,2.55
2023-01-09T15:19:35.723Z,8.73
2023-01-09T15:22:04.976Z,4.32
2023-01-09T15:24:34.365Z,3.72
2023-01-09T15:27:11.747Z,6.43
2023-01-09T15:29:39.385Z,3.97
2023-01-09T15:32:08.750Z,2.50
2023-01-09T15:34:36.916Z,2.85
2023-01-09T15:37:04.427Z,3.95
2023-01-09T15:39:36.201Z,7.25
2023-01-09T15:42:22.853Z,11.73
2023-01-09T15:44:53.825Z,10.57
2023-01-09T15:47:23.561Z,12.30
2023-01-09T15:49:51.290Z,15.23
2023-01-09T15:52:18.928Z,29.17
2023-01-09T15:54:46.962Z,28.23
2023-01-09T15:57:26.659Z,31.05
2023-01-09T15:59:54.887Z,31.38
2023-01-09T16:02:42.257Z,25.67
2023-01-09T16:05:14.100Z,26.88
2023-01-09T16:07:51.431Z,16.88
2023-01-09T16:10:31.530Z,11.52
2023-01-09T16:12:59.142Z,9.43
2023-01-09T16:15:27.342Z,11.65
2023-01-09T16:18:06.648Z,7.78
2023-01-09T16:20:34.065Z,6.30
2023-01-09T16:23:03.009Z,9.50
2023-01-09T16:25:34.177Z,4.72
2023-01-09T16:31:08.246Z,5.53
2023-01-09T16:33:35.813Z,4.25
2023-01-09T16:36:05.278Z,6.60
2023-01-09T16:38:32.910Z,8.55
2023-01-09T16:41:19.108Z,7.82
2023-01-09T16:43:46.794Z,10.80
2023-01-09T16:46:15.820Z,12.40
2023-01-09T16:48:43.707Z,14.55
2023-01-09T16:51:15.642Z,16.63
2023-01-09T16:53:43.569Z,10.20
2023-01-09T16:56:28.529Z,5.72
2023-01-09T16:58:56.019Z,6.65
2023-01-09T17:01:23.648Z,11.77
2023-01-09T17:03:52.432Z,9.32
2023-01-09T17:06:28.710Z,7.85
2023-01-09T17:08:56.214Z,9.70
2023-01-09T17:11:25.083Z,9.77
2023-01-09T17:13:52.715Z,7.38
2023-01-09T17:16:20.155Z,9.25
2023-01-09T17:18:47.635Z,9.32
2023-01-09T17:21:16.159Z,6.95
2023-01-09T17:23:43.693Z,6.07
2023-01-09T17:26:35.317Z,5.28
2023-01-09T17:29:03.237Z,4.15
2023-01-09T17:31:31.576Z,3.63
2023-01-09T17:33:59.885Z,7.18
2023-01-09T17:36:30.035Z,7.53
2023-01-09T17:38:57.723Z,8.68
2023-01-09T17:41:26.492Z,7.28
2023-01-09T17:43:54.094Z,11.90
2023-01-09T17:46:32.426Z,5.68
2023-01-09T17:49:00.184Z,5.88
2023-01-09T17:51:29.326Z,6.03
2023-01-09T17:53:56.875Z,5.47
2023-01-09T17:56:27.013Z,6.50
2023-01-09T17:58:54.379Z,6.72
2023-01-09T18:01:21.968Z,4.82
2023-01-09T18:03:50.947Z,8.65
2023-01-09T18:06:20.529Z,6.55
2023-01-09T18:08:48.598Z,9.60
2023-01-09T18:14:42.192Z,10.30
2023-01-09T18:17:11.413Z,25.67
2023-01-09T18:19:38.816Z,27.58
2023-01-09T18:22:06.150Z,23.65
2023-01-09T18:24:33.602Z,25.92
2023-01-09T18:27:00.915Z,22.00
2023-01-09T18:29:28.716Z,20.85
2023-01-09T18:31:56.164Z,18.92
2023-01-09T18:34:24.489Z,13.23
2023-01-09T18:36:52.466Z,17.58
2023-01-09T18:39:19.928Z,13.05
2023-01-09T18:41:47.255Z,13.57
2023-01-09T18:44:14.632Z,10.60
2023-01-09T18:46:43.592Z,16.30
2023-01-09T18:49:11.252Z,12.52
2023-01-09T18:51:38.683Z,12.82
2023-01-09T18:54:12.365Z,16.13
2023-01-09T18:56:40.441Z,11.45
2023-01-09T18:59:07.767Z,8.32
2023-01-09T19:01:35.419Z,17.02
2023-01-09T19:04:03.023Z,12.98
2023-01-09T19:06:30.968Z,8.32
2023-01-09T19:09:01.348Z,10.32
2023-01-09T19:11:28.827Z,8.98
2023-01-09T19:13:56.486Z,8.30
2023-01-09T19:16:23.863Z,8.32
2023-01-09T19:18:51.213Z,11.45
2023-01-09T19:21:20.367Z,7.50
2023-01-09T19:23:48.351Z,9.73
2023-01-09T19:26:23.832Z,11.32
2023-01-09T19:28:54.951Z,8.00
2023-01-09T19:31:24.487Z,9.50
2023-01-09T19:33:53.746Z,7.80
2023-01-09T19:36:21.867Z,10.25
2023-01-09T19:38:49.260Z,11.02
2023-01-09T19:41:19.789Z,11.63
2023-01-09T19:43:47.727Z,10.05
2023-01-09T19:46:16.960Z,10.43
2023-01-09T19:48:44.410Z,10.00
2023-01-09T19:51:13.731Z,8.63
2023-01-09T19:53:41.019Z,11.05
2023-01-09T19:56:19.386Z,9.40
2023-01-09T19:58:51.170Z,7.82
2023-01-09T20:01:20.390Z,9.25
2023-01-09T20:03:48.789Z,7.03
2023-01-09T20:06:18.923Z,9.38
2023-01-09T20:08:52.874Z,6.78
2023-01-09T20:11:21.505Z,10.68
2023-01-09T20:13:49.261Z,9.85
2023-01-09T20:16:18.447Z,11.95
2023-01-09T20:18:46.210Z,11.90
2023-01-09T20:21:22.018Z,11.23
2023-01-09T20:23:53.164Z,13.77
2023-01-09T20:26:20.837Z,10.77
2023-01-09T20:28:48.374Z,10.05
2023-01-09T20:31:17.022Z,11.15
2023-01-09T20:33:45.373Z,11.55
2023-01-09T20:36:12.809Z,8.90
2023-01-09T20:38:40.743Z,13.90
2023-01-09T20:43:40.299Z,9.93
2023-01-09T20:46:09.322Z,9.57
2023-01-09T20:48:39.285Z,9.10
2023-01-09T20:51:08.998Z,11.13
2023-01-09T20:53:36.346Z,12.77
2023-01-09T20:56:07.682Z,11.45
2023-01-09T20:58:35.122Z,10.82
2023-01-09T21:01:22.705Z,17.10
2023-01-09T21:03:50.893Z,11.43
2023-01-09T21:06:18.582Z,9.45
2023-01-09T21:08:47.213Z,13.80
2023-01-09T21:11:15.228Z,9.88
2023-01-09T21:13:42.671Z,12.65
2023-01-09T21:16:11.423Z,14.40
2023-01-09T21:18:38.862Z,16.17
2023-01-09T21:21:07.251Z,11.30
2023-01-09T21:23:34.574Z,10.05
2023-01-09T21:26:02.285Z,9.13
2023-01-09T21:28:31.654Z,9.00
2023-01-09T21:30:59.034Z,9.07
2023-01-09T21:33:26.433Z,6.95
2023-01-09T21:35:57.195Z,7.50
2023-01-09T21:38:25.540Z,8.77
2023-01-09T21:40:53.579Z,7.38
2023-01-09T21:43:47.071Z,6.45
2023-01-09T21:46:33.864Z,6.60
2023-01-09T21:49:03.520Z,6.95
2023-01-09T21:51:34.550Z,4.10
2023-01-09T21:54:01.884Z,4.50
2023-01-09T21:56:29.402Z,5.88
2023-01-09T21:58:56.824Z,5.43
2023-01-09T22:01:24.201Z,6.20
2023-01-09T22:03:54.115Z,2.65
2023-01-09T22:06:21.602Z,3.38
2023-01-09T22:08:48.989Z,4.50
2023-01-09T22:11:16.888Z,3.92
2023-01-09T22:13:47.867Z,3.65
2023-01-09T22:16:15.426Z,3.10
2023-01-09T22:18:42.740Z,2.10
2023-01-09T22:21:10.264Z,3.30
2023-01-09T22:23:37.627Z,1.70
2023-01-09T22:26:11.982Z,3.70
2023-01-09T22:28:39.783Z,4.75
2023-01-09T22:31:10.952Z,1.50
2023-01-09T22:33:41.544Z,1.95
2023-01-09T22:36:11.303Z,2.63
2023-01-09T22:38:39.033Z,1.60
2023-01-09T22:41:06.556Z,1.50
2023-01-09T22:43:34.139Z,2.33
2023-01-09T22:46:02.342Z,1.42
2023-01-09T22:48:34.558Z,1.27
2023-01-09T22:51:02.628Z,1.58
2023-01-09T22:53:30.405Z,4.82
2023-01-09T22:55:58.290Z,1.38
2023-01-09T22:58:26.557Z,1.80
2023-01-09T23:00:54.118Z,2.60
2023-01-09T23:03:21.581Z,2.25
2023-01-09T23:05:49.224Z,1.73
2023-01-09T23:08:17.213Z,1.50
2023-01-09T23:10:44.963Z,1.88
2023-01-09T23:13:12.364Z,1.73
2023-01-09T23:15:39.705Z,1.25
2023-01-09T23:18:07.841Z,1.20
2023-01-09T23:20:35.125Z,1.33
2023-01-09T23:23:02.499Z,1.85
2023-01-09T23:25:29.968Z,1.63
2023-01-09T23:27:57.531Z,1.42
2023-01-09T23:30:25.048Z,2.35
2023-01-09T23:32:53.403Z,1.90
2023-01-09T23:35:22.935Z,1.70
2023-01-09T23:37:50.339Z,1.77
2023-01-09T23:40:22.507Z,1.63
2023-01-09T23:43:08.695Z,1.90
2023-01-09T23:45:36.916Z,2.45
2023-01-09T23:48:05.629Z,2.72
2023-01-09T23:50:33.215Z,2.42
2023-01-09T23:53:00.599Z,2.00
2023-01-09T23:55:28.409Z,2.55
2023-01-09T23:57:55.875Z,2.30
